Time;durP1;ratioP1;P1;durP2;ratioP2;P2;SDS_P1;SDS_P2;PMS_P1;PMS_P2;Temp;Humidity;BMP_temperature;BMP_pressure;BME280_temperature;BME280_humidity;BME280_pressure;Samples;Min_cycle;Max_cycle;Signal;HPM_P1;HPM_P2
2023/10/27 00:00:39;;;;;;;6.03;5.30;;;10.60;99.90;;;;;;4987344;28;20263;-86
2023/10/27 00:03:05;;;;;;;6.73;5.60;;;10.60;99.90;;;;;;4990643;28;20223;-86
2023/10/27 00:05:31;;;;;;;8.40;6.17;;;10.60;99.90;;;;;;4988101;28;20199;-86
2023/10/27 00:07:57;;;;;;;7.23;5.70;;;10.50;99.90;;;;;;4984962;28;20175;-86
2023/10/27 00:10:24;;;;;;;6.50;4.97;;;10.60;99.90;;;;;;4988556;28;20175;-86
2023/10/27 00:12:50;;;;;;;6.33;5.40;;;10.60;99.90;;;;;;4991823;28;20207;-86
2023/10/27 00:15:16;;;;;;;6.37;5.50;;;10.60;99.90;;;;;;4986801;28;20182;-87
2023/10/27 00:17:42;;;;;;;5.70;5.10;;;10.60;99.90;;;;;;4984844;28;20176;-86
2023/10/27 00:20:09;;;;;;;6.90;5.73;;;10.60;99.90;;;;;;4985914;28;20631;-86
2023/10/27 00:22:35;;;;;;;7.37;5.50;;;10.60;99.90;;;;;;4991896;28;20195;-86
2023/10/27 00:25:04;;;;;;;7.37;5.80;;;10.60;99.90;;;;;;4976710;28;20772;-86
2023/10/27 00:27:29;;;;;;;6.30;5.00;;;10.60;99.90;;;;;;4992214;28;20267;-86
2023/10/27 00:29:55;;;;;;;7.10;6.00;;;10.50;99.90;;;;;;4990906;28;20665;-87
2023/10/27 00:32:21;;;;;;;8.33;5.50;;;10.50;99.90;;;;;;4987713;28;20207;-86
2023/10/27 00:34:46;;;;;;;8.53;5.63;;;10.60;99.90;;;;;;4988877;28;20275;-85
2023/10/27 00:37:12;;;;;;;7.63;5.90;;;10.60;99.90;;;;;;4988374;28;20235;-86
2023/10/27 00:39:41;;;;;;;8.47;6.67;;;10.60;99.90;;;;;;4981653;28;20223;-86
2023/10/27 00:42:07;;;;;;;7.93;6.10;;;10.50;99.90;;;;;;4980503;28;20655;-86
2023/10/27 00:44:32;;;;;;;7.97;6.47;;;10.50;99.90;;;;;;4984778;28;20251;-86
2023/10/27 00:46:58;;;;;;;12.27;6.40;;;10.50;99.90;;;;;;4990619;28;20202;-86
2023/10/27 00:49:25;;;;;;;7.80;5.40;;;10.50;99.90;;;;;;4986047;28;20194;-87
2023/10/27 00:51:51;;;;;;;10.47;5.30;;;10.50;99.90;;;;;;4993340;28;20178;-84
2023/10/27 00:54:18;;;;;;;10.33;6.17;;;10.50;99.90;;;;;;4993061;28;20624;-87
2023/10/27 00:56:44;;;;;;;8.87;5.80;;;10.50;99.90;;;;;;4993580;28;20674;-86
2023/10/27 00:59:11;;;;;;;9.13;5.90;;;10.50;99.90;;;;;;4982145;28;20608;-86
2023/10/27 01:01:37;;;;;;;7.10;6.03;;;10.50;99.90;;;;;;4981428;28;20181;-85
2023/10/27 01:04:03;;;;;;;9.53;6.43;;;10.50;99.90;;;;;;4992543;28;20199;-86
2023/10/27 01:06:29;;;;;;;7.50;6.70;;;10.50;99.90;;;;;;4984571;28;20238;-86
2023/10/27 01:08:55;;;;;;;9.17;6.70;;;10.50;99.90;;;;;;4992144;28;20187;-86
2023/10/27 01:11:21;;;;;;;10.00;7.13;;;10.50;99.90;;;;;;4987278;28;20179;-85
2023/10/27 01:13:51;;;;;;;10.00;6.83;;;10.50;99.90;;;;;;4993216;28;20242;-86
2023/10/27 01:16:17;;;;;;;8.87;7.60;;;10.50;99.90;;;;;;4986351;28;20180;-86
2023/10/27 01:18:42;;;;;;;8.93;6.80;;;10.50;99.90;;;;;;4985553;28;20227;-87
2023/10/27 01:21:08;;;;;;;11.10;7.13;;;10.50;99.90;;;;;;4991905;28;20183;-86
2023/10/27 01:23:34;;;;;;;9.47;7.23;;;10.50;99.90;;;;;;4988249;28;20273;-86
2023/10/27 01:25:59;;;;;;;12.07;8.57;;;10.60;99.90;;;;;;4976512;28;20584;-86
2023/10/27 01:28:25;;;;;;;9.63;7.83;;;10.60;99.90;;;;;;4992863;28;20223;-86
2023/10/27 01:30:51;;;;;;;10.17;7.97;;;10.60;99.90;;;;;;4984869;28;20240;-86
2023/10/27 01:33:16;;;;;;;12.30;8.43;;;10.60;99.90;;;;;;4989174;28;20215;-86
2023/10/27 01:35:42;;;;;;;11.03;8.33;;;10.60;99.90;;;;;;4992087;28;20179;-86
2023/10/27 01:38:07;;;;;;;12.17;8.33;;;10.60;99.90;;;;;;4974421;28;20169;-86
2023/10/27 01:40:33;;;;;;;11.93;8.17;;;10.60;99.90;;;;;;4974268;28;20251;-87
2023/10/27 01:42:58;;;;;;;14.40;9.00;;;10.60;99.90;;;;;;4974341;28;20193;-86
2023/10/27 01:45:24;;;;;;;13.40;8.57;;;10.60;99.90;;;;;;4987103;28;20197;-86
2023/10/27 01:47:50;;;;;;;12.80;8.50;;;10.60;99.90;;;;;;4981494;28;20213;-86
2023/10/27 01:50:15;;;;;;;15.07;9.13;;;10.60;99.90;;;;;;4984752;28;20175;-86
2023/10/27 01:52:41;;;;;;;12.97;8.20;;;10.60;99.90;;;;;;4993834;28;20210;-87
2023/10/27 01:55:07;;;;;;;13.90;8.33;;;10.50;99.90;;;;;;4994942;28;20190;-86
2023/10/27 01:57:32;;;;;;;14.60;9.33;;;10.50;99.90;;;;;;4995476;28;20195;-86
2023/10/27 01:59:58;;;;;;;14.37;9.33;;;10.50;99.90;;;;;;4985417;28;20180;-86
2023/10/27 02:02:24;;;;;;;17.07;9.10;;;10.50;99.90;;;;;;4987371;28;20200;-86
2023/10/27 02:04:49;;;;;;;14.97;9.37;;;10.50;99.90;;;;;;4994864;28;20175;-85
2023/10/27 02:07:15;;;;;;;17.53;9.63;;;10.50;99.90;;;;;;4992771;28;20276;-85
2023/10/27 02:09:41;;;;;;;16.57;9.40;;;10.50;99.90;;;;;;4976048;28;20191;-86
2023/10/27 02:12:10;;;;;;;19.93;10.13;;;10.50;99.90;;;;;;4975748;28;20180;-85
2023/10/27 02:14:38;;;;;;;16.67;9.67;;;10.50;99.90;;;;;;5044661;23;20235;-81
2023/10/27 02:17:04;;;;;;;17.77;9.83;;;10.50;99.90;;;;;;4987032;28;20246;-83
2023/10/27 02:19:29;;;;;;;14.53;8.80;;;10.50;99.90;;;;;;4995375;28;20208;-82
2023/10/27 02:21:55;;;;;;;18.60;10.60;;;10.50;99.90;;;;;;4988067;28;20195;-82
2023/10/27 02:24:21;;;;;;;16.17;9.47;;;10.50;99.90;;;;;;4994887;28;20197;-82
2023/10/27 02:26:46;;;;;;;17.87;11.07;;;10.50;99.90;;;;;;4995994;28;20184;-81
2023/10/27 02:29:12;;;;;;;18.40;10.47;;;10.50;99.90;;;;;;4996014;28;20213;-82
2023/10/27 02:31:37;;;;;;;17.27;9.47;;;10.50;99.90;;;;;;4995601;28;20533;-82
2023/10/27 02:34:03;;;;;;;18.07;10.57;;;10.50;99.90;;;;;;4995904;28;20203;-82
2023/10/27 02:36:29;;;;;;;16.30;9.70;;;10.50;99.90;;;;;;4995603;28;20250;-82
2023/10/27 02:38:55;;;;;;;20.03;10.57;;;10.60;99.90;;;;;;4995780;28;20168;-82
2023/10/27 02:41:21;;;;;;;17.27;10.13;;;10.60;99.90;;;;;;4994947;28;20553;-82
2023/10/27 02:43:46;;;;;;;19.77;10.10;;;10.60;99.90;;;;;;4994465;28;20246;-81
2023/10/27 02:46:12;;;;;;;17.27;10.73;;;10.60;99.90;;;;;;4996200;28;20176;-82
2023/10/27 02:48:40;;;;;;;22.00;10.87;;;10.50;99.90;;;;;;4995437;28;20180;-81
2023/10/27 02:51:06;;;;;;;20.60;10.63;;;10.50;99.90;;;;;;4995514;28;20573;-82
2023/10/27 02:53:31;;;;;;;17.70;10.40;;;10.60;99.90;;;;;;4993759;28;20285;-82
2023/10/27 02:56:05;;;;;;;18.50;10.37;;;10.50;99.90;;;;;;4994281;28;20260;-82
2023/10/27 02:58:31;;;;;;;18.60;10.33;;;10.50;99.90;;;;;;4995408;28;20179;-82
2023/10/27 03:00:56;;;;;;;18.90;11.27;;;10.50;99.90;;;;;;4994149;28;20180;-82
2023/10/27 03:03:22;;;;;;;19.60;10.83;;;10.50;99.90;;;;;;4994744;28;20254;-80
2023/10/27 03:05:49;;;;;;;19.67;11.23;;;10.50;99.90;;;;;;4994227;28;20191;-81
2023/10/27 03:08:14;;;;;;;18.87;11.30;;;10.50;99.90;;;;;;4995642;28;20715;-82
2023/10/27 03:10:40;;;;;;;19.60;11.57;;;10.50;99.90;;;;;;4994287;28;20278;-82
2023/10/27 03:13:08;;;;;;;18.57;11.23;;;10.50;99.90;;;;;;4994178;28;20215;-82
2023/10/27 03:15:35;;;;;;;18.07;11.40;;;10.40;99.90;;;;;;4993967;28;20247;-82
2023/10/27 03:18:01;;;;;;;21.40;12.13;;;10.40;99.90;;;;;;4994119;28;20199;-82
2023/10/27 03:20:26;;;;;;;18.53;12.03;;;10.30;99.90;;;;;;4994327;28;20183;-82
2023/10/27 03:22:52;;;;;;;20.77;12.10;;;10.30;99.90;;;;;;4994690;28;20187;-82
2023/10/27 03:25:17;;;;;;;20.33;11.73;;;10.30;99.90;;;;;;4987234;28;20214;-82
2023/10/27 03:27:44;;;;;;;20.73;12.10;;;10.30;99.90;;;;;;4993794;28;20218;-81
2023/10/27 03:30:09;;;;;;;23.87;12.93;;;10.30;99.90;;;;;;4994254;28;20176;-82
2023/10/27 03:32:35;;;;;;;22.30;12.57;;;10.30;99.90;;;;;;4992895;28;20204;-82
2023/10/27 03:35:01;;;;;;;22.37;12.20;;;10.30;99.90;;;;;;4994485;28;20203;-82
2023/10/27 03:37:26;;;;;;;21.33;12.30;;;10.30;99.90;;;;;;4993751;28;20174;-82
2023/10/27 03:39:52;;;;;;;21.60;12.23;;;10.30;99.90;;;;;;4993782;28;20172;-82
2023/10/27 03:42:17;;;;;;;22.13;12.03;;;10.20;99.90;;;;;;4994740;28;20179;-81
2023/10/27 03:44:43;;;;;;;19.57;12.03;;;10.20;99.90;;;;;;4992373;28;20684;-82
2023/10/27 03:47:09;;;;;;;21.63;12.70;;;10.20;99.90;;;;;;4994696;28;20180;-82
2023/10/27 03:49:34;;;;;;;21.47;12.33;;;10.20;99.90;;;;;;4994830;28;20199;-82
2023/10/27 03:52:00;;;;;;;21.77;12.17;;;10.20;99.90;;;;;;4994718;28;20191;-83
2023/10/27 03:54:26;;;;;;;20.07;11.80;;;10.20;99.90;;;;;;4989347;28;20211;-82
2023/10/27 03:56:51;;;;;;;20.30;11.70;;;10.20;99.90;;;;;;4975021;28;20668;-83
2023/10/27 03:59:19;;;;;;;16.33;11.43;;;10.20;99.90;;;;;;4986545;28;20230;-80
2023/10/27 04:01:44;;;;;;;19.20;10.80;;;10.20;99.90;;;;;;4994811;28;20195;-81
2023/10/27 04:04:11;;;;;;;19.23;11.23;;;10.20;99.90;;;;;;4994550;28;20200;-82
2023/10/27 04:06:37;;;;;;;18.93;10.47;;;10.20;99.90;;;;;;4993075;28;20656;-81
2023/10/27 04:09:04;;;;;;;19.20;11.00;;;10.20;99.90;;;;;;4993242;28;20180;-82
2023/10/27 04:11:29;;;;;;;21.03;10.47;;;10.20;99.90;;;;;;4992366;28;20211;-82
2023/10/27 04:13:55;;;;;;;17.83;9.50;;;10.20;99.90;;;;;;4991095;28;20238;-82
2023/10/27 04:16:20;;;;;;;18.60;10.30;;;10.30;99.90;;;;;;4992900;28;20171;-82
2023/10/27 04:18:46;;;;;;;17.53;10.47;;;10.30;99.90;;;;;;4993455;28;20182;-83
2023/10/27 04:21:12;;;;;;;14.67;7.93;;;10.40;99.90;;;;;;4994698;28;20176;-84
2023/10/27 04:23:37;;;;;;;18.27;10.77;;;10.60;99.90;;;;;;4992742;28;20198;-84
2023/10/27 04:26:03;;;;;;;17.23;9.60;;;10.90;99.90;;;;;;4993994;28;20172;-81
2023/10/27 04:28:28;;;;;;;12.70;8.33;;;11.00;99.90;;;;;;4992642;28;20194;-84
2023/10/27 04:30:54;;;;;;;16.47;8.27;;;11.00;99.90;;;;;;5006659;28;20179;-82
2023/10/27 04:33:24;;;;;;;10.13;7.07;;;11.10;99.90;;;;;;4992332;28;20203;-81
2023/10/27 04:35:50;;;;;;;16.93;9.00;;;11.30;99.90;;;;;;4993805;28;20547;-82
2023/10/27 04:38:16;;;;;;;11.77;8.63;;;11.50;99.90;;;;;;4991782;28;20180;-84
2023/10/27 04:40:41;;;;;;;13.93;9.03;;;11.30;99.90;;;;;;4992024;28;20222;-84
2023/10/27 04:43:07;;;;;;;13.73;9.00;;;11.10;99.90;;;;;;4991235;28;20211;-84
2023/10/27 04:45:32;;;;;;;13.40;8.80;;;10.90;99.90;;;;;;4990736;28;20282;-81
2023/10/27 04:47:58;;;;;;;15.57;9.33;;;10.60;99.90;;;;;;4992231;28;20188;-83
2023/10/27 04:50:24;;;;;;;15.47;9.47;;;10.40;99.90;;;;;;4984332;28;20183;-84
2023/10/27 04:52:50;;;;;;;15.07;9.20;;;10.30;99.90;;;;;;4991456;28;20211;-85
2023/10/27 04:55:15;;;;;;;17.03;9.47;;;10.20;99.90;;;;;;4993332;28;20199;-83
2023/10/27 04:57:41;;;;;;;11.73;8.67;;;10.20;99.90;;;;;;4989319;28;20179;-83
2023/10/27 05:00:10;;;;;;;14.37;9.20;;;10.20;99.90;;;;;;4992591;28;20694;-79
2023/10/27 05:02:35;;;;;;;15.20;9.20;;;10.20;99.90;;;;;;4991273;28;20191;-83
2023/10/27 05:05:01;;;;;;;11.77;8.13;;;10.20;99.90;;;;;;4987028;28;20233;-82
2023/10/27 05:07:27;;;;;;;13.93;8.47;;;10.20;99.90;;;;;;4992274;28;20235;-82
2023/10/27 05:09:52;;;;;;;12.43;8.40;;;10.20;99.90;;;;;;4991748;28;20211;-81
2023/10/27 05:12:18;;;;;;;13.30;8.60;;;10.20;99.90;;;;;;4991216;28;20198;-84
2023/10/27 05:14:44;;;;;;;13.87;8.87;;;10.10;99.90;;;;;;4991630;28;20215;-83
2023/10/27 05:17:10;;;;;;;12.77;7.77;;;10.10;99.90;;;;;;4991559;28;20190;-83
2023/10/27 05:19:35;;;;;;;12.00;8.00;;;10.10;99.90;;;;;;4993316;28;20629;-83
2023/10/27 05:22:04;;;;;;;10.07;7.33;;;10.10;99.90;;;;;;4992879;28;20263;-82
2023/10/27 05:24:31;;;;;;;13.83;7.80;;;10.10;99.90;;;;;;4991444;28;20222;-81
2023/10/27 05:26:56;;;;;;;15.30;8.83;;;10.10;99.90;;;;;;4993167;28;20179;-85
2023/10/27 05:29:22;;;;;;;14.03;7.50;;;10.10;99.90;;;;;;4996654;28;20200;-84
2023/10/27 05:31:47;;;;;;;14.17;8.53;;;10.10;99.90;;;;;;4995459;28;20215;-81
2023/10/27 05:34:13;;;;;;;10.03;7.07;;;10.10;99.90;;;;;;4995827;28;20210;-83
2023/10/27 05:36:38;;;;;;;13.17;7.43;;;10.10;99.90;;;;;;5011337;28;20270;-82
2023/10/27 05:39:04;;;;;;;10.20;7.03;;;10.10;99.90;;;;;;4996469;28;20179;-83
2023/10/27 05:41:30;;;;;;;14.57;7.60;;;10.00;99.90;;;;;;4995084;28;20226;-83
2023/10/27 05:43:55;;;;;;;10.50;6.60;;;10.00;99.90;;;;;;4995060;28;20191;-82
2023/10/27 05:46:21;;;;;;;9.50;6.47;;;10.10;99.90;;;;;;4995298;28;20230;-84
2023/10/27 05:48:47;;;;;;;14.03;6.77;;;10.10;99.90;;;;;;4996012;28;20183;-83
2023/10/27 05:51:12;;;;;;;10.80;6.60;;;10.10;99.90;;;;;;4988591;28;20186;-82
2023/10/27 05:53:38;;;;;;;9.83;6.20;;;10.10;99.90;;;;;;4996257;28;20286;-82
2023/10/27 05:56:04;;;;;;;9.57;6.47;;;10.10;99.90;;;;;;4997716;28;20262;-79
2023/10/27 05:58:33;;;;;;;12.47;6.07;;;10.10;99.90;;;;;;4996499;28;20183;-84
2023/10/27 06:00:59;;;;;;;10.47;6.40;;;10.00;99.90;;;;;;4995072;28;20184;-83
2023/10/27 06:03:25;;;;;;;11.00;6.10;;;10.00;99.90;;;;;;4989862;28;20172;-81
2023/10/27 06:05:52;;;;;;;12.73;6.50;;;10.00;99.90;;;;;;4992656;28;20195;-83
2023/10/27 06:08:21;;;;;;;9.37;5.80;;;9.90;99.90;;;;;;5015676;28;20270;-82
2023/10/27 06:10:46;;;;;;;11.77;6.43;;;9.90;99.90;;;;;;4999191;28;20184;-81
2023/10/27 06:13:13;;;;;;;7.67;5.90;;;9.80;99.90;;;;;;4997357;28;20201;-81
2023/10/27 06:15:39;;;;;;;9.20;5.67;;;9.80;99.90;;;;;;4996586;28;20215;-80
2023/10/27 06:18:04;;;;;;;6.73;5.40;;;9.80;99.90;;;;;;4996343;28;20179;-79
2023/10/27 06:20:30;;;;;;;8.37;5.23;;;9.90;99.90;;;;;;4996338;28;20184;-81
2023/10/27 06:22:55;;;;;;;8.20;5.50;;;9.90;99.90;;;;;;4993306;28;20222;-80
2023/10/27 06:25:25;;;;;;;8.37;5.40;;;9.90;99.90;;;;;;4994557;28;20199;-80
2023/10/27 06:27:52;;;;;;;11.27;5.30;;;9.80;99.90;;;;;;4996709;28;20179;-81
2023/10/27 06:30:20;;;;;;;7.50;5.20;;;9.80;99.90;;;;;;4993434;28;20215;-83
2023/10/27 06:32:49;;;;;;;7.93;5.43;;;9.90;99.90;;;;;;4995145;28;20254;-82
2023/10/27 06:35:15;;;;;;;8.63;5.50;;;9.90;99.90;;;;;;4994079;28;20195;-82
2023/10/27 06:37:40;;;;;;;8.80;5.57;;;9.90;99.90;;;;;;4992140;28;20176;-82
2023/10/27 06:40:06;;;;;;;9.67;5.40;;;9.90;99.90;;;;;;4994621;28;20172;-81
2023/10/27 06:42:32;;;;;;;10.60;5.47;;;10.00;99.90;;;;;;4995605;28;20172;-81
2023/10/27 06:44:59;;;;;;;7.80;5.20;;;9.90;99.90;;;;;;4995219;28;20188;-81
2023/10/27 06:47:25;;;;;;;8.17;5.80;;;9.90;99.90;;;;;;4994134;28;20172;-82
2023/10/27 06:49:50;;;;;;;12.17;5.40;;;10.00;99.90;;;;;;4995284;28;20202;-80
2023/10/27 06:52:16;;;;;;;9.13;5.70;;;10.00;99.90;;;;;;4995340;28;20184;-81
2023/10/27 06:54:41;;;;;;;15.27;6.07;;;10.00;99.90;;;;;;4994007;28;20204;-81
2023/10/27 06:57:07;;;;;;;10.63;5.53;;;10.00;99.90;;;;;;4994082;28;20188;-80
2023/10/27 06:59:33;;;;;;;8.97;5.23;;;10.10;99.90;;;;;;4991602;28;20177;-81
2023/10/27 07:01:59;;;;;;;10.40;5.60;;;10.10;99.90;;;;;;4995042;28;20183;-81
2023/10/27 07:04:24;;;;;;;8.87;5.10;;;10.10;99.90;;;;;;4993420;28;20195;-82
2023/10/27 07:06:50;;;;;;;8.43;5.17;;;10.20;99.90;;;;;;4993131;28;20676;-81
2023/10/27 07:09:15;;;;;;;10.57;5.23;;;10.20;99.90;;;;;;4994091;28;20644;-82
2023/10/27 07:11:41;;;;;;;9.83;5.13;;;10.20;99.90;;;;;;4996823;28;20210;-79
2023/10/27 07:14:06;;;;;;;10.70;5.37;;;10.30;99.90;;;;;;4995439;28;20250;-82
2023/10/27 07:16:32;;;;;;;8.27;4.87;;;10.30;99.90;;;;;;4994096;28;20175;-81
2023/10/27 07:18:58;;;;;;;8.57;4.63;;;10.30;99.90;;;;;;4996199;28;20168;-80
2023/10/27 07:21:23;;;;;;;7.87;4.33;;;10.40;99.90;;;;;;4995750;28;20787;-81
2023/10/27 07:23:49;;;;;;;8.20;4.40;;;10.40;99.90;;;;;;5010285;28;20211;-80
2023/10/27 07:26:17;;;;;;;6.57;4.60;;;10.40;99.90;;;;;;4994258;28;20191;-80
2023/10/27 07:28:43;;;;;;;10.63;5.00;;;10.40;99.90;;;;;;4995387;28;20274;-81
2023/10/27 07:31:09;;;;;;;10.17;5.67;;;10.50;99.90;;;;;;4995406;28;20195;-83
2023/10/27 07:33:38;;;;;;;9.10;4.60;;;10.50;99.90;;;;;;4994757;28;20294;-80
2023/10/27 07:36:07;;;;;;;11.17;4.70;;;10.50;99.90;;;;;;4993983;28;20180;-81
2023/10/27 07:38:34;;;;;;;8.77;4.40;;;10.50;99.90;;;;;;4993694;28;20188;-81
2023/10/27 07:41:00;;;;;;;7.50;4.17;;;10.50;99.90;;;;;;5009204;28;20191;-84
2023/10/27 07:43:26;;;;;;;9.93;4.50;;;10.60;99.90;;;;;;4993553;28;20561;-83
2023/10/27 07:45:54;;;;;;;9.47;4.30;;;10.60;99.90;;;;;;4993827;28;20268;-83
2023/10/27 07:48:20;;;;;;;9.03;4.37;;;10.60;99.90;;;;;;4994009;28;20195;-83
2023/10/27 07:50:46;;;;;;;9.70;4.57;;;10.60;99.90;;;;;;4992386;28;20216;-84
2023/10/27 07:53:11;;;;;;;9.40;4.07;;;10.60;99.90;;;;;;5008670;28;20226;-81
2023/10/27 07:55:37;;;;;;;7.73;3.87;;;10.60;99.90;;;;;;4992419;28;20688;-83
2023/10/27 07:58:04;;;;;;;9.60;4.30;;;10.60;99.90;;;;;;4993908;28;20211;-81
2023/10/27 08:00:31;;;;;;;9.33;3.73;;;10.60;99.90;;;;;;4992521;28;20605;-84
2023/10/27 08:02:57;;;;;;;9.03;4.17;;;10.60;99.90;;;;;;4993506;28;20238;-82
2023/10/27 08:05:23;;;;;;;10.77;3.87;;;10.60;99.90;;;;;;4989960;28;20372;-82
2023/10/27 08:07:49;;;;;;;10.27;3.90;;;10.60;99.90;;;;;;4986089;28;20278;-80
2023/10/27 08:10:16;;;;;;;8.93;3.77;;;10.60;99.90;;;;;;4994113;28;20175;-81
2023/10/27 08:12:42;;;;;;;8.73;3.37;;;10.60;99.90;;;;;;4992499;28;20672;-83
2023/10/27 08:15:09;;;;;;;8.87;3.73;;;10.60;99.90;;;;;;5050303;23;20230;-82
2023/10/27 08:17:35;;;;;;;9.80;3.73;;;10.60;99.90;;;;;;4994160;28;20222;-83
2023/10/27 08:20:03;;;;;;;8.53;4.20;;;10.70;99.90;;;;;;4992257;28;20175;-81
2023/10/27 08:22:28;;;;;;;9.97;3.60;;;10.70;99.90;;;;;;4992366;28;20224;-82
2023/10/27 08:24:54;;;;;;;10.50;4.63;;;10.70;99.90;;;;;;4976413;28;20193;-81
2023/10/27 08:27:20;;;;;;;9.03;3.50;;;10.70;99.90;;;;;;4993731;28;20183;-82
2023/10/27 08:29:45;;;;;;;8.50;3.60;;;10.60;99.90;;;;;;4991240;28;20172;-80
2023/10/27 08:32:13;;;;;;;6.67;3.97;;;10.60;99.90;;;;;;4991778;28;20182;-82
2023/10/27 08:34:39;;;;;;;5.73;3.50;;;10.60;99.90;;;;;;5008212;28;20586;-82
2023/10/27 08:37:04;;;;;;;8.60;3.97;;;10.60;99.90;;;;;;4993369;28;20172;-80
2023/10/27 08:39:33;;;;;;;6.37;3.70;;;10.60;99.90;;;;;;4992353;28;20564;-81
2023/10/27 08:41:59;;;;;;;5.80;3.57;;;10.70;99.90;;;;;;4985579;28;20551;-82
2023/10/27 08:44:26;;;;;;;6.70;3.40;;;10.70;99.90;;;;;;4991935;28;20282;-83
2023/10/27 08:46:53;;;;;;;6.77;3.40;;;10.70;99.90;;;;;;4985201;28;20263;-82
2023/10/27 08:49:19;;;;;;;6.37;3.30;;;10.70;99.90;;;;;;4972627;28;20176;-82
2023/10/27 08:51:44;;;;;;;9.03;3.27;;;10.70;99.90;;;;;;4973879;28;20172;-82
2023/10/27 08:54:10;;;;;;;6.43;2.93;;;10.70;99.90;;;;;;4986398;28;20203;-82
2023/10/27 08:56:37;;;;;;;6.37;2.73;;;10.70;99.90;;;;;;4980392;28;20183;-82
2023/10/27 08:59:06;;;;;;;3.30;1.80;;;10.70;99.90;;;;;;4976995;28;20260;-80
2023/10/27 09:01:32;;;;;;;2.83;1.50;;;10.70;99.90;;;;;;4992925;28;20709;-81
2023/10/27 09:04:15;;;;;;;3.17;1.40;;;10.70;99.90;;;;;;4995787;28;20171;-82
2023/10/27 09:06:42;;;;;;;2.00;1.47;;;10.60;99.90;;;;;;4989013;28;20176;-82
2023/10/27 09:09:11;;;;;;;1.60;1.40;;;10.70;99.90;;;;;;4991139;28;20212;-84
2023/10/27 09:11:43;;;;;;;2.53;1.47;;;10.70;99.90;;;;;;4989653;28;20182;-81
2023/10/27 09:14:28;;;;;;;1.93;1.50;;;10.70;99.90;;;;;;4984468;28;20207;-81
2023/10/27 09:17:11;;;;;;;1.70;1.40;;;10.70;99.90;;;;;;4984010;28;20177;-81
2023/10/27 09:19:37;;;;;;;1.53;1.30;;;10.70;99.90;;;;;;4992126;28;20172;-82
2023/10/27 09:22:13;;;;;;;3.23;1.40;;;10.70;99.90;;;;;;4991066;28;20251;-82
2023/10/27 09:24:38;;;;;;;1.63;1.40;;;10.70;99.90;;;;;;5004950;28;20192;-82
2023/10/27 09:27:04;;;;;;;2.37;1.43;;;10.60;99.90;;;;;;4993737;28;20176;-81
2023/10/27 09:29:40;;;;;;;2.83;1.47;;;10.60;99.90;;;;;;4991138;28;20172;-81
2023/10/27 09:49:38;;;;;;;1.83;1.40;;;10.50;99.90;;;;;;5026480;28;20647;-80
2023/10/27 09:52:08;;;;;;;20.00;7.40;;;10.70;99.90;;;;;;5033765;28;20185;-83
2023/10/27 09:54:33;;;;;;;91.07;23.17;;;11.00;99.90;;;;;;5031008;28;20184;-82
2023/10/27 09:57:04;;;;;;;1.90;1.73;;;11.90;99.90;;;;;;5014592;28;20194;-82
2023/10/27 09:59:31;;;;;;;241.43;65.03;;;11.50;99.90;;;;;;5030159;28;20209;-83
2023/10/27 10:02:02;;;;;;;282.67;70.53;;;13.10;99.90;;;;;;5039592;28;20174;-81
2023/10/27 10:04:50;;;;;;;138.77;42.90;;;14.80;99.90;;;;;;5031006;28;20181;-81
2023/10/27 10:07:31;;;;;;;21.97;8.50;;;14.80;99.90;;;;;;5045308;28;20217;-82
2023/10/27 10:10:08;;;;;;;28.70;10.10;;;13.80;99.90;;;;;;5020907;28;20217;-83
2023/10/27 10:12:59;;;;;;;19.77;7.33;;;13.40;99.90;;;;;;5041418;28;20172;-85
2023/10/27 10:15:31;;;;;;;3.30;1.77;;;13.70;99.90;;;;;;5041914;28;20201;-83
2023/10/27 10:17:57;;;;;;;5.70;3.40;;;13.10;99.90;;;;;;5025019;28;20183;-85
2023/10/27 10:20:56;;;;;;;4.80;2.73;;;13.00;99.90;;;;;;5040581;28;20209;-85
2023/10/27 10:23:24;;;;;;;4.50;3.17;;;12.60;99.90;;;;;;5009714;23;20227;-82
2023/10/27 10:25:56;;;;;;;3.33;2.30;;;13.10;99.90;;;;;;4998449;28;20550;-84
2023/10/27 10:28:36;;;;;;;4.47;2.37;;;12.90;99.90;;;;;;4989848;28;20190;-84
2023/10/27 10:31:10;;;;;;;2.40;1.83;;;12.90;99.90;;;;;;4989627;28;20180;-83
2023/10/27 10:33:37;;;;;;;3.07;2.00;;;12.50;99.90;;;;;;4984836;28;20673;-84
2023/10/27 10:36:17;;;;;;;5.37;2.67;;;12.40;99.90;;;;;;4969011;28;20188;-84
2023/10/27 10:39:05;;;;;;;4.97;2.33;;;12.60;99.90;;;;;;4973709;28;20209;-83
2023/10/27 10:41:43;;;;;;;3.63;1.87;;;12.70;99.90;;;;;;4967010;28;20219;-84
2023/10/27 10:44:16;;;;;;;3.00;2.70;;;12.40;99.90;;;;;;4968311;28;20532;-84
2023/10/27 10:46:44;;;;;;;2.83;2.00;;;12.80;99.90;;;;;;4968493;28;20177;-79
2023/10/27 10:49:31;;;;;;;2.30;2.00;;;12.30;99.90;;;;;;4964239;28;20236;-82
2023/10/27 10:51:58;;;;;;;3.43;3.13;;;12.00;99.90;;;;;;4966928;28;20201;-82
2023/10/27 10:54:32;;;;;;;2.43;2.23;;;11.80;99.90;;;;;;4972609;28;20243;-82
2023/10/27 10:57:08;;;;;;;3.47;2.60;;;11.60;99.90;;;;;;4969324;28;20176;-83
2023/10/27 10:59:34;;;;;;;4.10;2.60;;;11.50;99.90;;;;;;4955467;28;20232;-81
2023/10/27 11:02:00;;;;;;;3.87;2.60;;;11.40;99.90;;;;;;4957019;28;20205;-82
2023/10/27 11:04:30;;;;;;;3.47;2.40;;;11.60;99.90;;;;;;4957323;28;20242;-80
2023/10/27 11:07:01;;;;;;;3.60;3.27;;;11.90;99.90;;;;;;4970222;28;20177;-81
2023/10/27 11:09:27;;;;;;;2.97;2.30;;;12.00;99.90;;;;;;4954413;29;20185;-81
2023/10/27 11:11:54;;;;;;;4.03;3.60;;;11.80;99.90;;;;;;4955924;28;20181;-81
2023/10/27 11:14:20;;;;;;;3.63;2.90;;;11.60;99.90;;;;;;4956430;28;20177;-83
2023/10/27 11:16:55;;;;;;;4.30;3.90;;;11.60;99.90;;;;;;4955267;29;20336;-81
2023/10/27 11:19:21;;;;;;;3.20;2.90;;;11.40;99.90;;;;;;4956773;28;20181;-81
2023/10/27 11:21:52;;;;;;;4.07;2.63;;;11.40;99.90;;;;;;4955443;28;20173;-82
2023/10/27 11:24:18;;;;;;;4.43;3.83;;;11.30;99.90;;;;;;4995064;28;20186;-82
2023/10/27 11:26:45;;;;;;;5.63;4.63;;;11.30;99.90;;;;;;4976710;28;20180;-81
2023/10/27 11:29:10;;;;;;;1.63;1.40;;;11.30;99.90;;;;;;4977397;28;20183;-83
2023/10/27 11:31:40;;;;;;;1.67;1.30;;;11.30;99.90;;;;;;4983673;28;20178;-81
2023/10/27 11:34:11;;;;;;;1.80;1.20;;;11.20;99.90;;;;;;4979153;28;20182;-83
2023/10/27 11:36:39;;;;;;;2.27;1.50;;;11.10;99.90;;;;;;4994095;28;20315;-82
2023/10/27 11:39:19;;;;;;;1.90;1.40;;;11.20;99.90;;;;;;4990559;28;20582;-80
2023/10/27 11:41:54;;;;;;;2.63;1.23;;;11.10;99.90;;;;;;4982743;28;20179;-82
2023/10/27 11:44:21;;;;;;;2.77;1.50;;;11.10;99.90;;;;;;4992626;28;20724;-87
2023/10/27 11:46:52;;;;;;;1.80;1.50;;;11.20;99.90;;;;;;4999539;28;20179;-82
2023/10/27 11:49:17;;;;;;;1.30;1.20;;;11.20;99.90;;;;;;4994579;28;20188;-82
2023/10/27 11:51:44;;;;;;;1.83;1.30;;;11.20;99.90;;;;;;4985685;28;20725;-82
2023/10/27 11:54:09;;;;;;;1.50;1.27;;;11.20;99.90;;;;;;4984152;28;20784;-81
2023/10/27 11:56:35;;;;;;;1.93;1.10;;;11.30;99.90;;;;;;4993939;28;20271;-81
2023/10/27 11:59:01;;;;;;;1.10;1.00;;;11.30;99.90;;;;;;4976529;28;20244;-82
2023/10/27 12:01:26;;;;;;;1.27;0.80;;;11.30;99.90;;;;;;4983977;28;20199;-80
2023/10/27 12:03:52;;;;;;;1.53;0.90;;;11.30;99.90;;;;;;4992570;28;20567;-82
2023/10/27 12:06:17;;;;;;;0.90;0.90;;;11.30;99.90;;;;;;4985030;28;20216;-81
2023/10/27 12:08:43;;;;;;;0.80;0.80;;;11.50;99.90;;;;;;4984259;28;20206;-80
2023/10/27 12:11:08;;;;;;;1.67;0.87;;;11.50;99.90;;;;;;4994358;28;20175;-80
2023/10/27 12:13:34;;;;;;;1.30;1.20;;;11.50;99.90;;;;;;4994759;28;20210;-81
2023/10/27 12:16:00;;;;;;;2.70;2.10;;;11.60;99.90;;;;;;5001186;28;20191;-82
2023/10/27 12:18:25;;;;;;;1.40;1.30;;;11.60;99.90;;;;;;4994080;28;20207;-79
2023/10/27 12:20:51;;;;;;;1.70;1.60;;;11.60;99.90;;;;;;4993942;28;20180;-79
2023/10/27 12:23:18;;;;;;;2.20;2.00;;;11.60;99.90;;;;;;4993755;28;20218;-81
2023/10/27 12:25:44;;;;;;;1.00;0.93;;;11.50;99.90;;;;;;4976762;28;20180;-81
2023/10/27 12:28:10;;;;;;;0.80;0.80;;;11.50;99.90;;;;;;4993751;28;20559;-81
2023/10/27 12:30:39;;;;;;;1.00;0.90;;;11.50;99.90;;;;;;4998245;28;20183;-80
2023/10/27 12:33:04;;;;;;;0.80;0.80;;;11.40;99.90;;;;;;4992441;28;20204;-83
2023/10/27 12:35:32;;;;;;;0.87;0.77;;;11.30;99.90;;;;;;4993721;28;20314;-79
2023/10/27 12:37:58;;;;;;;0.83;0.70;;;11.30;99.90;;;;;;4998051;28;20195;-82
2023/10/27 12:40:24;;;;;;;0.80;0.80;;;11.30;99.90;;;;;;4993879;28;20172;-81
2023/10/27 12:42:50;;;;;;;0.73;0.63;;;11.30;99.90;;;;;;4984325;28;20245;-79
2023/10/27 12:45:16;;;;;;;0.73;0.73;;;11.30;99.90;;;;;;4990765;28;20179;-81
2023/10/27 12:47:47;;;;;;;1.63;0.70;;;11.30;99.90;;;;;;4984690;28;20581;-81
2023/10/27 12:50:12;;;;;;;1.93;0.90;;;11.20;99.90;;;;;;4993337;28;20261;-79
2023/10/27 12:52:39;;;;;;;0.83;0.80;;;11.10;99.90;;;;;;4975782;28;20203;-82
2023/10/27 12:55:08;;;;;;;1.10;1.00;;;11.20;99.90;;;;;;4993368;28;20194;-82
2023/10/27 12:57:34;;;;;;;0.80;0.80;;;11.20;99.90;;;;;;4976849;28;20231;-82